createdAt,value
2022-10-23T00:01:29.870Z,76.80
2022-10-23T00:04:01.561Z,76.60
2022-10-23T00:06:30.038Z,76.50
2022-10-23T00:08:56.820Z,76.90
2022-10-23T00:11:27.149Z,76.50
2022-10-23T00:13:55.985Z,76.80
2022-10-23T00:16:22.776Z,76.60
2022-10-23T00:18:49.591Z,77.50
2022-10-23T00:21:17.510Z,77.20
2022-10-23T00:23:45.114Z,77.80
2022-10-23T00:26:15.738Z,77.60
2022-10-23T00:28:43.990Z,77.90
2022-10-23T00:31:11.478Z,78.00
2022-10-23T00:33:40.943Z,78.00
2022-10-23T00:36:09.727Z,78.40
2022-10-23T00:38:36.926Z,78.60
2022-10-23T00:41:04.633Z,77.30
2022-10-23T00:43:32.715Z,75.60
2022-10-23T00:45:59.556Z,75.40
2022-10-23T00:48:28.626Z,75.90
2022-10-23T00:50:56.498Z,77.60
2022-10-23T00:53:24.752Z,78.00
2022-10-23T00:55:53.854Z,77.90
2022-10-23T00:58:21.452Z,77.40
2022-10-23T01:00:51.562Z,77.80
2022-10-23T01:03:21.376Z,77.50
2022-10-23T01:06:00.450Z,77.60
2022-10-23T01:08:48.817Z,76.80
2022-10-23T01:11:18.980Z,77.20
2022-10-23T01:14:23.542Z,77.30
2022-10-23T01:17:25.438Z,76.30
2022-10-23T01:20:19.272Z,76.10
2022-10-23T01:23:24.967Z,75.50
2022-10-23T01:26:16.669Z,76.30
2022-10-23T01:28:58.811Z,76.30
2022-10-23T01:31:33.631Z,76.60
2022-10-23T01:34:07.139Z,76.90
2022-10-23T01:36:36.142Z,77.40
2022-10-23T01:39:08.728Z,77.30
2022-10-23T01:41:35.395Z,77.40
2022-10-23T01:44:26.324Z,77.50
2022-10-23T01:46:54.507Z,77.40
2022-10-23T01:49:22.751Z,77.00
2022-10-23T01:52:00.816Z,77.10
2022-10-23T01:54:31.562Z,77.50
2022-10-23T01:56:59.201Z,77.50
2022-10-23T01:59:39.631Z,77.40
2022-10-23T02:02:11.330Z,74.80
2022-10-23T02:04:58.133Z,75.20
2022-10-23T02:07:24.934Z,77.30
2022-10-23T02:09:51.863Z,77.40
2022-10-23T02:12:37.815Z,77.70
2022-10-23T02:15:21.481Z,77.20
2022-10-23T02:18:20.727Z,77.70
2022-10-23T02:20:55.872Z,77.20
2022-10-23T02:23:40.596Z,77.10
2022-10-23T02:26:16.840Z,77.20
2022-10-23T02:28:52.275Z,76.60
2022-10-23T02:31:22.294Z,78.00
2022-10-23T02:33:49.357Z,78.30
2022-10-23T02:36:18.051Z,77.70
2022-10-23T02:38:46.239Z,78.00
2022-10-23T02:41:44.341Z,77.80
2022-10-23T02:44:37.692Z,77.70
2022-10-23T02:47:28.148Z,77.50
2022-10-23T02:50:06.042Z,77.50
2022-10-23T02:52:43.007Z,77.80
2022-10-23T02:55:21.266Z,77.40
2022-10-23T02:58:09.293Z,77.50
2022-10-23T03:00:45.317Z,77.80
2022-10-23T03:03:27.102Z,77.50
2022-10-23T03:05:54.543Z,76.70
2022-10-23T03:08:21.365Z,76.40
2022-10-23T03:13:14.735Z,76.60
2022-10-23T03:15:43.660Z,77.40
2022-10-23T03:18:13.477Z,77.00
2022-10-23T03:20:44.716Z,76.50
2022-10-23T03:23:13.872Z,77.30
2022-10-23T03:25:40.617Z,77.60
2022-10-23T03:28:07.352Z,78.20
2022-10-23T03:30:35.671Z,77.50
2022-10-23T03:33:02.515Z,77.50
2022-10-23T03:35:29.267Z,79.50
2022-10-23T03:37:55.946Z,79.80
2022-10-23T03:40:25.171Z,79.60
2022-10-23T03:42:51.835Z,79.20
2022-10-23T03:45:19.661Z,78.00
2022-10-23T03:47:48.592Z,77.50
2022-10-23T03:50:15.503Z,77.70
2022-10-23T03:52:42.728Z,78.50
2022-10-23T03:55:12.487Z,78.20
2022-10-23T03:57:39.266Z,78.40
2022-10-23T04:00:07.261Z,78.00
2022-10-23T04:02:43.570Z,78.50
2022-10-23T04:05:11.000Z,78.60
2022-10-23T04:07:39.920Z,79.00
2022-10-23T04:10:07.272Z,78.80
2022-10-23T04:12:34.775Z,78.70
2022-10-23T04:15:01.479Z,78.20
2022-10-23T04:19:55.264Z,79.30
2022-10-23T04:22:24.725Z,79.40
2022-10-23T04:24:54.508Z,79.10
2022-10-23T04:27:21.276Z,79.70
2022-10-23T04:29:49.185Z,79.10
2022-10-23T04:32:16.046Z,78.70
2022-10-23T04:34:44.290Z,78.40
2022-10-23T04:37:11.050Z,78.10
2022-10-23T04:39:38.327Z,78.20
2022-10-23T04:42:05.149Z,78.60
2022-10-23T04:44:31.873Z,79.10
2022-10-23T04:46:58.653Z,78.80
2022-10-23T04:49:25.457Z,79.00
2022-10-23T04:52:17.624Z,78.60
2022-10-23T04:55:04.932Z,79.00
2022-10-23T04:57:40.984Z,77.90
2022-10-23T05:00:12.213Z,78.00
2022-10-23T05:02:51.740Z,78.50
2022-10-23T05:05:19.944Z,78.50
2022-10-23T05:08:05.380Z,78.30
2022-10-23T05:10:42.615Z,77.60
2022-10-23T05:13:12.147Z,77.20
2022-10-23T05:15:40.350Z,78.00
2022-10-23T05:18:31.152Z,78.10
2022-10-23T05:21:06.463Z,77.90
2022-10-23T05:23:36.337Z,78.20
2022-10-23T05:26:04.429Z,78.00
2022-10-23T05:28:32.144Z,78.90
2022-10-23T05:31:00.855Z,77.90
2022-10-23T05:33:30.135Z,77.70
2022-10-23T05:35:57.713Z,77.60
2022-10-23T05:38:26.659Z,78.50
2022-10-23T05:40:54.945Z,78.40
2022-10-23T05:43:23.071Z,78.60
2022-10-23T05:45:54.333Z,78.70
2022-10-23T05:48:44.227Z,79.60
2022-10-23T05:51:26.712Z,79.60
2022-10-23T05:54:11.975Z,79.50
2022-10-23T05:56:48.313Z,79.20
2022-10-23T05:59:23.497Z,79.20
2022-10-23T06:02:10.673Z,79.00
2022-10-23T06:05:00.476Z,78.30
2022-10-23T06:07:33.566Z,78.10
2022-10-23T06:10:05.860Z,77.00
2022-10-23T06:12:35.232Z,78.20
2022-10-23T06:15:02.629Z,78.60
2022-10-23T06:17:49.194Z,78.40
2022-10-23T06:20:15.974Z,78.20
2022-10-23T06:22:44.384Z,78.80
2022-10-23T06:25:32.107Z,78.40
2022-10-23T06:27:59.148Z,79.00
2022-10-23T06:30:26.986Z,78.90
2022-10-23T06:32:54.061Z,78.70
2022-10-23T06:35:20.745Z,78.10
2022-10-23T06:37:47.528Z,78.60
2022-10-23T06:40:18.572Z,79.30
2022-10-23T06:42:58.927Z,78.60
2022-10-23T06:45:42.716Z,78.60
2022-10-23T06:48:12.395Z,78.20
2022-10-23T06:50:59.915Z,77.30
2022-10-23T06:53:36.187Z,77.70
2022-10-23T06:56:14.079Z,78.20
2022-10-23T06:58:41.268Z,79.10
2022-10-23T07:01:16.349Z,78.80
2022-10-23T07:03:44.909Z,78.20
2022-10-23T07:06:12.108Z,79.20
2022-10-23T07:08:39.235Z,78.40
2022-10-23T07:11:23.415Z,78.10
2022-10-23T07:13:50.863Z,78.40
2022-10-23T07:16:23.299Z,78.20
2022-10-23T07:18:58.731Z,78.30
2022-10-23T07:21:31.146Z,78.30
2022-10-23T07:24:15.101Z,78.10
2022-10-23T07:26:41.899Z,78.80
2022-10-23T07:29:08.943Z,78.60
2022-10-23T07:31:35.831Z,78.70
2022-10-23T07:34:21.166Z,78.60
2022-10-23T07:37:00.484Z,78.50
2022-10-23T07:39:27.260Z,78.60
2022-10-23T07:41:53.959Z,77.80
2022-10-23T07:44:22.107Z,77.60
2022-10-23T07:46:51.122Z,77.80
2022-10-23T07:49:17.780Z,77.10
2022-10-23T07:51:48.956Z,77.60
2022-10-23T07:54:18.159Z,78.20
2022-10-23T07:57:00.400Z,78.40
2022-10-23T07:59:38.096Z,78.00
2022-10-23T08:02:13.204Z,78.10
2022-10-23T08:04:41.577Z,78.10
2022-10-23T08:07:21.441Z,77.80
2022-10-23T08:09:49.613Z,77.70
2022-10-23T08:12:16.322Z,77.90
2022-10-23T08:14:43.382Z,77.40
2022-10-23T08:17:11.317Z,77.70
2022-10-23T08:19:56.327Z,77.10
2022-10-23T08:22:26.334Z,76.50
2022-10-23T08:24:53.039Z,75.80
2022-10-23T08:27:19.791Z,75.80
2022-10-23T08:29:47.613Z,75.30
2022-10-23T08:32:14.334Z,74.50
2022-10-23T08:34:55.859Z,73.20
2022-10-23T08:37:24.199Z,72.00
2022-10-23T08:39:53.227Z,72.20
2022-10-23T08:42:27.488Z,70.50
2022-10-23T08:45:07.022Z,70.60
2022-10-23T08:47:50.768Z,69.60
2022-10-23T08:50:23.097Z,69.90
2022-10-23T08:53:09.305Z,70.10
2022-10-23T08:55:43.406Z,69.40
2022-10-23T08:58:23.951Z,69.80
2022-10-23T09:00:51.812Z,69.80
2022-10-23T09:03:18.818Z,69.50
2022-10-23T09:06:27.249Z,69.30
2022-10-23T09:09:18.745Z,68.50
2022-10-23T09:12:15.308Z,68.50
2022-10-23T09:14:49.971Z,68.60
2022-10-23T09:17:30.200Z,68.00
2022-10-23T09:20:18.726Z,67.30
2022-10-23T09:22:46.764Z,67.90
2022-10-23T09:25:20.047Z,68.20
2022-10-23T09:27:56.098Z,68.20
2022-10-23T09:30:34.629Z,68.30
2022-10-23T09:33:14.072Z,68.20
2022-10-23T09:36:13.676Z,67.80
2022-10-23T09:38:50.241Z,67.80
2022-10-23T09:41:26.258Z,67.60
2022-10-23T09:44:07.841Z,67.40
2022-10-23T09:46:43.607Z,67.60
2022-10-23T09:49:25.421Z,67.60
2022-10-23T09:52:10.164Z,67.10
2022-10-23T09:54:44.553Z,66.90
2022-10-23T09:57:29.022Z,66.80
2022-10-23T09:59:59.199Z,66.60
2022-10-23T10:02:36.758Z,66.60
2022-10-23T10:05:25.791Z,66.80
2022-10-23T10:08:21.417Z,67.00
2022-10-23T10:10:52.181Z,66.30
2022-10-23T10:13:33.817Z,66.80
2022-10-23T10:16:09.622Z,66.70
2022-10-23T10:18:43.384Z,67.10
2022-10-23T10:21:20.892Z,67.00
2022-10-23T10:23:56.007Z,67.20
2022-10-23T10:26:55.352Z,67.30
2022-10-23T10:30:01.975Z,67.40
2022-10-23T10:32:31.998Z,67.40
2022-10-23T10:35:13.744Z,66.00
2022-10-23T10:38:13.329Z,66.00
2022-10-23T10:41:00.629Z,65.40
2022-10-23T10:43:59.428Z,64.40
2022-10-23T10:46:40.952Z,65.00
2022-10-23T10:49:12.976Z,64.60
2022-10-23T10:52:20.486Z,64.90
2022-10-23T10:55:01.644Z,64.90
2022-10-23T10:57:40.018Z,63.30
2022-10-23T11:00:28.525Z,61.50
2022-10-23T11:03:04.485Z,61.00
2022-10-23T11:05:34.833Z,60.30
2022-10-23T11:08:14.938Z,59.80
2022-10-23T11:10:46.217Z,60.60
2022-10-23T11:13:40.297Z,61.00
2022-10-23T11:16:18.531Z,59.80
2022-10-23T11:18:52.955Z,59.30
2022-10-23T11:21:41.694Z,58.70
2022-10-23T11:24:24.925Z,58.40
2022-10-23T11:27:18.542Z,58.20
2022-10-23T11:30:18.521Z,57.20
2022-10-23T11:33:09.365Z,57.20
2022-10-23T11:35:47.948Z,57.30
2022-10-23T11:38:30.029Z,56.80
2022-10-23T11:41:06.907Z,57.30
2022-10-23T11:43:47.208Z,57.40
2022-10-23T11:46:27.097Z,57.30
2022-10-23T11:48:55.697Z,58.20
2022-10-23T11:51:34.342Z,58.20
2022-10-23T11:54:10.358Z,58.90
2022-10-23T11:57:14.301Z,59.00
2022-10-23T11:59:50.066Z,58.60
2022-10-23T12:02:38.067Z,58.80
2022-10-23T12:05:45.639Z,59.10
2022-10-23T12:08:25.208Z,59.60
2022-10-23T12:10:52.891Z,59.30
2022-10-23T12:13:37.597Z,59.50
2022-10-23T12:16:07.407Z,59.30
2022-10-23T12:18:44.869Z,59.30
2022-10-23T12:21:21.429Z,59.90
2022-10-23T12:24:00.388Z,60.10
2022-10-23T12:26:45.690Z,60.20
2022-10-23T12:29:41.009Z,60.40
2022-10-23T12:32:34.998Z,59.70
2022-10-23T12:35:10.876Z,59.00
2022-10-23T12:38:01.977Z,57.30
2022-10-23T12:40:30.225Z,57.00
2022-10-23T12:42:59.420Z,57.40
2022-10-23T12:45:27.285Z,57.40
2022-10-23T12:47:54.033Z,57.30
2022-10-23T12:50:23.577Z,57.30
2022-10-23T12:53:06.637Z,57.00
2022-10-23T12:55:57.118Z,56.90
2022-10-23T12:58:31.742Z,57.20
2022-10-23T13:01:04.245Z,57.90
2022-10-23T13:03:33.726Z,58.50
2022-10-23T13:06:02.999Z,59.20
2022-10-23T13:08:38.717Z,59.50
2022-10-23T13:11:26.570Z,59.90
2022-10-23T13:13:55.541Z,60.40
2022-10-23T13:23:35.933Z,61.10
2022-10-23T13:26:23.401Z,62.20
2022-10-23T13:28:50.849Z,61.90
2022-10-23T13:31:17.471Z,61.50
2022-10-23T13:34:03.017Z,61.00
2022-10-23T13:36:34.554Z,60.20
2022-10-23T13:39:11.767Z,59.80
2022-10-23T13:41:41.435Z,60.00
2022-10-23T13:44:14.873Z,60.10
2022-10-23T13:46:42.165Z,60.00
2022-10-23T13:49:09.164Z,60.00
2022-10-23T13:51:42.787Z,59.80
2022-10-23T13:54:16.052Z,59.50
2022-10-23T13:56:42.906Z,61.80
2022-10-23T13:59:12.947Z,63.10
2022-10-23T14:01:40.082Z,64.10
2022-10-23T14:04:07.809Z,64.40
2022-10-23T14:06:37.379Z,64.30
2022-10-23T14:09:10.428Z,64.80
2022-10-23T14:11:37.165Z,65.40
2022-10-23T14:14:03.876Z,65.90
2022-10-23T14:16:30.849Z,66.20
2022-10-23T14:18:57.691Z,66.40
2022-10-23T14:21:24.847Z,66.90
2022-10-23T14:23:53.058Z,67.40
2022-10-23T14:26:22.996Z,67.90
2022-10-23T14:28:53.246Z,69.00
2022-10-23T14:31:20.377Z,69.40
2022-10-23T14:33:52.763Z,69.90
2022-10-23T14:38:58.758Z,71.40
2022-10-23T14:41:26.330Z,72.00
2022-10-23T14:43:54.289Z,72.60
2022-10-23T14:46:23.973Z,72.80
2022-10-23T14:48:55.788Z,72.60
2022-10-23T14:51:27.821Z,72.40
2022-10-23T14:53:58.872Z,72.30
2022-10-23T14:56:26.369Z,72.30
2022-10-23T14:58:53.518Z,72.70
2022-10-23T15:01:20.410Z,74.20
2022-10-23T15:03:48.481Z,74.20
2022-10-23T15:06:18.237Z,74.60
2022-10-23T15:08:45.296Z,75.00
2022-10-23T15:11:12.796Z,75.50
2022-10-23T15:13:39.604Z,76.10
2022-10-23T15:16:08.945Z,76.30
2022-10-23T15:21:07.247Z,76.60
2022-10-23T15:23:36.752Z,76.90
2022-10-23T15:26:06.392Z,77.30
2022-10-23T15:28:34.773Z,78.20
2022-10-23T15:31:01.748Z,78.30
2022-10-23T15:33:28.620Z,78.70
2022-10-23T15:35:56.482Z,79.10
2022-10-23T15:38:24.427Z,79.00
2022-10-23T15:40:53.617Z,79.50
2022-10-23T15:43:20.393Z,79.50
2022-10-23T15:45:47.156Z,79.90
2022-10-23T15:48:13.931Z,80.20
2022-10-23T15:50:40.656Z,80.30
2022-10-23T15:53:07.329Z,80.80
2022-10-23T15:55:34.108Z,81.00
2022-10-23T15:58:04.092Z,81.60
2022-10-23T16:00:30.921Z,82.50
2022-10-23T16:02:58.126Z,82.90
2022-10-23T16:05:24.960Z,82.70
2022-10-23T16:07:51.639Z,82.60
2022-10-23T16:10:18.746Z,82.90
2022-10-23T16:12:45.853Z,82.90
2022-10-23T16:15:12.828Z,82.80
2022-10-23T16:17:39.718Z,82.90
2022-10-23T16:20:06.943Z,83.00
2022-10-23T16:22:33.676Z,83.10
2022-10-23T16:25:00.456Z,83.40
2022-10-23T16:27:27.265Z,82.80
2022-10-23T16:29:54.149Z,83.00
2022-10-23T16:32:20.870Z,83.10
2022-10-23T16:34:47.592Z,82.20
2022-10-23T16:37:14.377Z,82.20
2022-10-23T16:40:00.107Z,83.90
2022-10-23T16:42:49.502Z,83.90
2022-10-23T16:45:37.798Z,84.00
2022-10-23T16:48:04.933Z,83.90
2022-10-23T16:50:31.675Z,83.80
2022-10-23T16:52:58.429Z,83.80
2022-10-23T16:55:25.144Z,83.70
2022-10-23T16:57:51.910Z,83.50
2022-10-23T17:00:21.898Z,83.50
2022-10-23T17:02:48.704Z,83.50
2022-10-23T17:05:15.889Z,83.50
2022-10-23T17:07:42.903Z,84.50
2022-10-23T17:10:10.089Z,85.10
2022-10-23T17:12:36.882Z,84.90
2022-10-23T17:15:03.930Z,85.00
2022-10-23T17:17:30.668Z,84.70
2022-10-23T17:19:59.568Z,84.40
2022-10-23T17:22:26.274Z,84.30
2022-10-23T17:24:54.030Z,84.20
2022-10-23T17:27:21.010Z,84.40
2022-10-23T17:29:47.962Z,84.50
2022-10-23T17:32:14.767Z,84.50
2022-10-23T17:34:41.596Z,84.50
2022-10-23T17:37:08.927Z,84.40
2022-10-23T17:39:35.965Z,84.40
2022-10-23T17:42:02.675Z,84.30
2022-10-23T17:44:29.373Z,83.80
2022-10-23T17:46:56.204Z,83.90
2022-10-23T17:49:24.368Z,84.30
2022-10-23T17:51:56.908Z,83.80
2022-10-23T17:54:24.403Z,83.20
2022-10-23T17:56:51.278Z,84.40
2022-10-23T17:59:19.521Z,84.40
2022-10-23T18:01:48.059Z,84.40
2022-10-23T18:04:17.333Z,84.30
2022-10-23T18:06:47.597Z,83.60
2022-10-23T18:09:14.542Z,83.80
2022-10-23T18:11:45.347Z,84.00
2022-10-23T18:14:13.991Z,84.70
2022-10-23T18:16:40.845Z,84.90
2022-10-23T18:19:07.841Z,84.80
2022-10-23T18:21:35.769Z,84.90
2022-10-23T18:24:03.014Z,84.90
2022-10-23T18:26:31.315Z,85.00
2022-10-23T18:28:59.422Z,84.40
2022-10-23T18:31:30.108Z,84.40
2022-10-23T18:33:58.701Z,84.50
2022-10-23T18:36:28.871Z,85.20
2022-10-23T18:41:28.045Z,85.30
2022-10-23T18:43:55.208Z,85.00
2022-10-23T18:46:22.278Z,84.30
2022-10-23T18:48:50.767Z,84.90
2022-10-23T18:51:20.739Z,85.20
2022-10-23T18:53:48.364Z,85.40
2022-10-23T18:56:21.832Z,85.40
2022-10-23T18:58:53.773Z,85.30
2022-10-23T19:01:21.134Z,85.40
2022-10-23T19:03:48.075Z,85.20
2022-10-23T19:06:16.116Z,85.20
2022-10-23T19:08:44.441Z,85.00
2022-10-23T19:11:13.349Z,85.20
2022-10-23T19:13:40.694Z,85.00
2022-10-23T19:16:14.610Z,85.10
2022-10-23T19:18:44.900Z,85.00
2022-10-23T19:21:12.087Z,85.00
2022-10-23T19:23:41.699Z,85.10
2022-10-23T19:26:11.933Z,84.90
2022-10-23T19:28:42.511Z,84.80
2022-10-23T19:31:10.424Z,84.90
2022-10-23T19:33:38.851Z,84.50
2022-10-23T19:36:08.858Z,84.80
2022-10-23T19:38:40.249Z,84.80
2022-10-23T19:41:07.539Z,84.60
2022-10-23T19:43:34.346Z,84.70
2022-10-23T19:46:04.996Z,84.30
2022-10-23T19:48:34.885Z,84.50
2022-10-23T19:51:01.620Z,84.40
2022-10-23T19:53:28.392Z,84.10
2022-10-23T19:56:06.233Z,84.20
2022-10-23T19:58:33.261Z,84.00
2022-10-23T20:01:22.713Z,84.40
2022-10-23T20:03:49.801Z,84.40
2022-10-23T20:06:19.846Z,84.50
2022-10-23T20:08:46.928Z,84.40
2022-10-23T20:11:20.810Z,84.40
2022-10-23T20:13:49.148Z,84.60
2022-10-23T20:16:28.114Z,84.20
2022-10-23T20:18:55.348Z,84.30
2022-10-23T20:21:22.624Z,84.50
2022-10-23T20:23:50.848Z,85.30
2022-10-23T20:26:21.908Z,86.70
2022-10-23T20:28:52.092Z,86.50
2022-10-23T20:31:20.876Z,79.00
2022-10-23T20:33:47.708Z,74.90
2022-10-23T20:36:30.600Z,71.60
2022-10-23T20:38:58.841Z,70.90
2022-10-23T20:41:27.046Z,70.60
2022-10-23T20:43:59.733Z,69.00
2022-10-23T20:46:34.157Z,66.70
2022-10-23T20:49:00.912Z,65.90
2022-10-23T20:51:27.636Z,65.70
2022-10-23T20:53:54.626Z,66.00
2022-10-23T20:56:29.980Z,65.30
2022-10-23T20:59:18.750Z,66.20
2022-10-23T21:01:52.797Z,67.60
2022-10-23T21:04:27.713Z,67.30
2022-10-23T21:07:12.826Z,66.70
2022-10-23T21:09:40.303Z,65.00
2022-10-23T21:12:07.823Z,65.80
2022-10-23T21:14:35.216Z,64.90
2022-10-23T21:17:02.308Z,64.40
2022-10-23T21:19:28.987Z,64.30
2022-10-23T21:21:55.713Z,64.10
2022-10-23T21:24:22.573Z,63.90
2022-10-23T21:26:49.315Z,63.30
2022-10-23T21:29:20.086Z,62.50
2022-10-23T21:31:59.230Z,62.90
2022-10-23T21:34:26.908Z,63.10
2022-10-23T21:37:12.372Z,62.80
2022-10-23T21:39:41.205Z,63.00
2022-10-23T21:42:08.357Z,63.50
2022-10-23T21:44:35.303Z,63.80
2022-10-23T21:47:01.995Z,63.80
2022-10-23T21:49:28.728Z,64.10
2022-10-23T21:51:55.458Z,65.00
2022-10-23T21:54:22.267Z,65.50
2022-10-23T21:56:51.694Z,64.80
2022-10-23T21:59:21.179Z,64.70
2022-10-23T22:01:49.239Z,64.30
2022-10-23T22:04:17.614Z,64.70
2022-10-23T22:06:45.596Z,64.90
2022-10-23T22:09:15.193Z,65.00
2022-10-23T22:11:42.127Z,65.30
2022-10-23T22:14:08.924Z,65.00
2022-10-23T22:16:35.651Z,65.20
2022-10-23T22:19:03.466Z,65.30
2022-10-23T22:21:30.730Z,65.40
2022-10-23T22:23:59.827Z,65.00
2022-10-23T22:26:35.728Z,64.70
2022-10-23T22:29:09.919Z,64.80
2022-10-23T22:31:37.894Z,65.40
2022-10-23T22:34:18.621Z,65.80
2022-10-23T22:36:54.583Z,65.80
2022-10-23T22:39:22.488Z,66.10
2022-10-23T22:41:49.713Z,66.50
2022-10-23T22:44:16.495Z,67.00
2022-10-23T22:46:43.626Z,67.30
2022-10-23T22:49:10.574Z,68.10
2022-10-23T22:51:38.959Z,68.70
2022-10-23T22:54:06.009Z,69.10
2022-10-23T22:56:33.164Z,69.10
2022-10-23T22:58:59.845Z,69.60
2022-10-23T23:01:42.755Z,69.90
2022-10-23T23:04:25.858Z,69.60
2022-10-23T23:06:58.696Z,70.10
2022-10-23T23:09:25.369Z,70.20
2022-10-23T23:11:52.749Z,70.50
2022-10-23T23:14:23.393Z,70.40
2022-10-23T23:16:52.757Z,70.50
2022-10-23T23:19:19.886Z,70.60
2022-10-23T23:21:46.603Z,70.60
2022-10-23T23:24:13.339Z,71.00
2022-10-23T23:26:40.551Z,71.10
2022-10-23T23:29:07.387Z,71.50
2022-10-23T23:31:34.087Z,71.40
2022-10-23T23:34:01.013Z,71.60
2022-10-23T23:36:28.072Z,71.80
2022-10-23T23:38:57.050Z,73.10
2022-10-23T23:41:24.819Z,73.60
2022-10-23T23:43:54.487Z,74.80
2022-10-23T23:46:21.855Z,75.80
2022-10-23T23:48:49.566Z,76.40
2022-10-23T23:51:18.970Z,77.50
2022-10-23T23:53:46.282Z,77.80
2022-10-23T23:56:13.843Z,78.70
2022-10-23T23:58:40.560Z,78.90
